Time;durP1;ratioP1;P1;durP2;ratioP2;P2;SDS_P1;SDS_P2;PMS_P1;PMS_P2;Temp;Humidity;BMP_temperature;BMP_pressure;BME280_temperature;BME280_humidity;BME280_pressure;Samples;Min_cycle;Max_cycle;Signal;HPM_P1;HPM_P2
2023/04/19 00:01:28;;;;;;;8.60;3.85;;;;;;;;;;4963338;28;20069;-73
2023/04/19 00:03:55;;;;;;;10.73;4.82;;;;;;;;;;4973374;28;20060;-72
2023/04/19 00:06:24;;;;;;;9.13;4.47;;;;;;;;;;4972400;28;20066;-73
2023/04/19 00:08:51;;;;;;;11.18;4.65;;;;;;;;;;4985565;28;20140;-72
2023/04/19 00:11:18;;;;;;;10.13;4.75;;;;;;;;;;4977650;28;20062;-73
2023/04/19 00:13:44;;;;;;;9.55;4.60;;;;;;;;;;4993977;28;20112;-72
2023/04/19 00:16:11;;;;;;;9.20;4.20;;;;;;;;;;4977297;28;20066;-72
2023/04/19 00:18:38;;;;;;;10.30;4.78;;;;;;;;;;4973310;28;20145;-73
2023/04/19 00:21:06;;;;;;;8.25;3.97;;;;;;;;;;4969547;28;20148;-73
2023/04/19 00:23:34;;;;;;;11.18;4.95;;;;;;;;;;4971959;28;20058;-72
2023/04/19 00:26:02;;;;;;;10.02;4.35;;;;;;;;;;4973347;28;20050;-73
2023/04/19 00:28:29;;;;;;;9.40;4.70;;;;;;;;;;4972935;28;20085;-72
2023/04/19 00:30:56;;;;;;;9.45;4.50;;;;;;;;;;4972263;28;20063;-72
2023/04/19 00:33:22;;;;;;;8.93;4.55;;;;;;;;;;4967553;28;20054;-74
2023/04/19 00:35:49;;;;;;;9.50;4.55;;;;;;;;;;4971887;28;20058;-73
2023/04/19 00:38:16;;;;;;;11.15;4.70;;;;;;;;;;4954493;28;20145;-72
2023/04/19 00:40:45;;;;;;;10.57;5.30;;;;;;;;;;4954897;28;20065;-72
2023/04/19 00:43:17;;;;;;;10.48;4.93;;;;;;;;;;4951931;28;20086;-74
2023/04/19 00:45:43;;;;;;;10.32;5.05;;;;;;;;;;4955004;28;20121;-72
2023/04/19 00:48:10;;;;;;;9.63;4.65;;;;;;;;;;4948706;28;20146;-73
2023/04/19 00:50:37;;;;;;;11.32;4.60;;;;;;;;;;4954472;28;20051;-72
2023/04/19 00:53:06;;;;;;;9.20;4.60;;;;;;;;;;4952140;28;20050;-73
2023/04/19 00:55:33;;;;;;;10.07;4.72;;;;;;;;;;4949347;28;20065;-73
2023/04/19 00:58:02;;;;;;;10.23;4.95;;;;;;;;;;4971219;28;20082;-72
2023/04/19 01:00:29;;;;;;;9.43;4.28;;;;;;;;;;4983611;28;20105;-72
2023/04/19 01:02:56;;;;;;;10.77;4.75;;;;;;;;;;4974559;28;20054;-72
2023/04/19 01:05:22;;;;;;;10.38;4.38;;;;;;;;;;4980188;28;20061;-73
2023/04/19 01:07:50;;;;;;;10.40;4.88;;;;;;;;;;4971343;28;20092;-73
2023/04/19 01:10:16;;;;;;;8.70;4.28;;;;;;;;;;4996438;28;20054;-72
2023/04/19 01:12:45;;;;;;;11.75;4.78;;;;;;;;;;4988159;28;20054;-73
2023/04/19 01:15:16;;;;;;;13.32;4.80;;;;;;;;;;4975603;28;20050;-73
2023/04/19 01:17:43;;;;;;;12.50;4.97;;;;;;;;;;4961015;28;20050;-73
2023/04/19 01:20:10;;;;;;;11.60;5.18;;;;;;;;;;4992220;28;20141;-72
2023/04/19 01:22:39;;;;;;;11.68;4.88;;;;;;;;;;4982766;28;20173;-73
2023/04/19 01:25:06;;;;;;;9.70;4.35;;;;;;;;;;4977342;28;20077;-73
2023/04/19 01:27:33;;;;;;;9.43;4.57;;;;;;;;;;4970590;28;20064;-74
2023/04/19 01:29:59;;;;;;;9.68;4.70;;;;;;;;;;5014100;28;20053;-72
2023/04/19 01:32:26;;;;;;;9.95;4.82;;;;;;;;;;4979321;28;20116;-72
2023/04/19 01:34:53;;;;;;;10.20;4.78;;;;;;;;;;4975647;28;20124;-72
2023/04/19 01:37:19;;;;;;;12.15;5.28;;;;;;;;;;4989702;28;20058;-72
2023/04/19 01:39:48;;;;;;;11.13;5.32;;;;;;;;;;4974600;28;20059;-75
2023/04/19 01:42:14;;;;;;;10.38;4.68;;;;;;;;;;4992444;28;20070;-74
2023/04/19 01:44:41;;;;;;;10.20;5.00;;;;;;;;;;4975688;28;20137;-75
2023/04/19 01:47:10;;;;;;;8.48;4.35;;;;;;;;;;4987789;28;20050;-75
2023/04/19 01:49:36;;;;;;;;;;;;;;;;;;4981147;28;20062;-74
2023/04/19 01:52:03;;;;;;;9.80;4.57;;;;;;;;;;4993891;28;20020;-74
2023/04/19 01:54:30;;;;;;;9.73;4.80;;;;;;;;;;4984982;28;20057;-74
2023/04/19 01:56:58;;;;;;;13.32;5.38;;;;;;;;;;4980066;28;20054;-74
2023/04/19 01:59:25;;;;;;;9.70;4.97;;;;;;;;;;4980151;28;20054;-74
2023/04/19 02:01:52;;;;;;;10.38;4.78;;;;;;;;;;4992476;28;20046;-74
2023/04/19 02:04:22;;;;;;;10.38;4.47;;;;;;;;;;4964931;28;20212;-74
2023/04/19 02:06:49;;;;;;;11.18;5.30;;;;;;;;;;4987001;28;20081;-74
2023/04/19 02:09:19;;;;;;;9.98;4.95;;;;;;;;;;4985974;28;20053;-74
2023/04/19 02:11:45;;;;;;;9.23;4.68;;;;;;;;;;4992520;28;20138;-74
2023/04/19 02:14:14;;;;;;;9.63;5.03;;;;;;;;;;4981448;28;20049;-74
2023/04/19 02:16:41;;;;;;;9.82;4.57;;;;;;;;;;4992430;28;20121;-74
2023/04/19 02:19:08;;;;;;;11.20;4.63;;;;;;;;;;4995451;28;20141;-75
2023/04/19 02:21:34;;;;;;;10.88;4.88;;;;;;;;;;4993133;28;20064;-75
2023/04/19 02:24:01;;;;;;;10.98;5.20;;;;;;;;;;4980728;28;20058;-74
2023/04/19 02:26:28;;;;;;;11.98;5.13;;;;;;;;;;4965151;28;20069;-75
2023/04/19 02:28:55;;;;;;;9.52;4.68;;;;;;;;;;5030444;28;20053;-73
2023/04/19 02:31:23;;;;;;;11.98;5.05;;;;;;;;;;4982724;28;20058;-74
2023/04/19 02:33:50;;;;;;;10.05;4.72;;;;;;;;;;4995479;28;20069;-73
2023/04/19 02:36:17;;;;;;;13.80;5.10;;;;;;;;;;4994854;28;20060;-72
2023/04/19 02:38:44;;;;;;;11.85;5.57;;;;;;;;;;4995311;28;20061;-72
2023/04/19 02:41:11;;;;;;;9.95;4.63;;;;;;;;;;4977661;28;20054;-73
2023/04/19 02:43:37;;;;;;;11.45;4.70;;;;;;;;;;4974894;28;20058;-73
2023/04/19 02:46:04;;;;;;;10.85;4.70;;;;;;;;;;4972561;28;20050;-71
2023/04/19 02:48:32;;;;;;;9.35;4.82;;;;;;;;;;4970915;28;20113;-73
2023/04/19 02:50:59;;;;;;;10.98;4.63;;;;;;;;;;4976459;28;20057;-72
2023/04/19 02:53:27;;;;;;;10.45;5.15;;;;;;;;;;4959757;28;20113;-72
2023/04/19 02:55:54;;;;;;;12.35;4.97;;;;;;;;;;4965875;28;20054;-72
2023/04/19 02:58:21;;;;;;;12.07;4.55;;;;;;;;;;4970631;28;20168;-73
2023/04/19 03:00:47;;;;;;;12.18;5.38;;;;;;;;;;4978571;28;20057;-72
2023/04/19 03:03:14;;;;;;;11.32;4.70;;;;;;;;;;4975766;28;20087;-72
2023/04/19 03:05:43;;;;;;;9.52;4.75;;;;;;;;;;4981153;28;20054;-72
2023/04/19 03:08:10;;;;;;;9.75;4.53;;;;;;;;;;4982082;28;20155;-72
2023/04/19 03:10:37;;;;;;;9.85;4.60;;;;;;;;;;4989911;28;20049;-72
2023/04/19 03:13:04;;;;;;;10.93;5.13;;;;;;;;;;4972919;28;20057;-72
2023/04/19 03:15:31;;;;;;;11.35;4.38;;;;;;;;;;4970835;28;20108;-72
2023/04/19 03:17:58;;;;;;;8.93;3.80;;;;;;;;;;5014919;28;20137;-72
2023/04/19 03:20:25;;;;;;;10.13;4.18;;;;;;;;;;4960912;28;20058;-72
2023/04/19 03:22:53;;;;;;;9.60;4.60;;;;;;;;;;4968477;28;20046;-72
2023/04/19 03:25:20;;;;;;;11.80;4.57;;;;;;;;;;4973063;28;20061;-72
2023/04/19 03:27:48;;;;;;;9.50;4.55;;;;;;;;;;4973916;28;20049;-74
2023/04/19 03:30:15;;;;;;;8.55;4.50;;;;;;;;;;4994199;28;20062;-74
2023/04/19 03:32:42;;;;;;;10.27;4.32;;;;;;;;;;4982179;28;20054;-74
2023/04/19 03:35:09;;;;;;;9.00;4.18;;;;;;;;;;4988972;28;20081;-73
2023/04/19 03:37:36;;;;;;;12.00;4.68;;;;;;;;;;4994644;28;20046;-74
2023/04/19 03:40:06;;;;;;;10.55;4.53;;;;;;;;;;4971675;28;20065;-75
2023/04/19 03:42:36;;;;;;;9.63;4.60;;;;;;;;;;4983890;28;20057;-74
2023/04/19 03:45:03;;;;;;;10.65;4.53;;;;;;;;;;4963244;28;20058;-74
2023/04/19 03:47:29;;;;;;;9.73;4.63;;;;;;;;;;4985410;28;20096;-74
2023/04/19 03:49:56;;;;;;;8.65;4.28;;;;;;;;;;4974767;28;20097;-75
2023/04/19 03:52:24;;;;;;;13.18;4.72;;;;;;;;;;4986303;28;20116;-75
2023/04/19 03:54:51;;;;;;;9.05;4.10;;;;;;;;;;4957570;28;20062;-75
2023/04/19 03:57:19;;;;;;;9.52;4.07;;;;;;;;;;4954103;28;20050;-74
2023/04/19 03:59:46;;;;;;;8.40;4.18;;;;;;;;;;4945207;28;20066;-73
2023/04/19 04:02:13;;;;;;;9.20;4.13;;;;;;;;;;4960428;28;20081;-74
2023/04/19 04:04:40;;;;;;;13.07;4.53;;;;;;;;;;4959913;28;20237;-74
2023/04/19 04:07:06;;;;;;;8.90;4.00;;;;;;;;;;4992405;28;20085;-74
2023/04/19 04:09:33;;;;;;;8.23;4.05;;;;;;;;;;4984281;28;20042;-74
2023/04/19 04:12:01;;;;;;;9.55;4.50;;;;;;;;;;4983583;28;20061;-75
2023/04/19 04:14:37;;;;;;;8.48;3.90;;;;;;;;;;4964171;28;20061;-74
2023/04/19 04:17:04;;;;;;;8.63;4.10;;;;;;;;;;4983643;28;20070;-74
2023/04/19 04:19:30;;;;;;;9.30;3.95;;;;;;;;;;4987047;28;20058;-73
2023/04/19 04:22:01;;;;;;;8.77;4.03;;;;;;;;;;4983403;28;20058;-74
2023/04/19 04:24:31;;;;;;;8.85;4.22;;;;;;;;;;5011647;28;20062;-74
2023/04/19 04:26:59;;;;;;;9.75;3.83;;;;;;;;;;4991504;28;20058;-73
2023/04/19 04:29:27;;;;;;;10.50;4.28;;;;;;;;;;4987607;28;20061;-74
2023/04/19 04:31:58;;;;;;;9.45;4.32;;;;;;;;;;4982866;28;20065;-74
2023/04/19 04:34:27;;;;;;;8.88;4.00;;;;;;;;;;4964467;28;20058;-75
2023/04/19 04:36:57;;;;;;;9.38;3.88;;;;;;;;;;4982618;28;20058;-74
2023/04/19 04:39:24;;;;;;;8.48;3.95;;;;;;;;;;4996366;28;20058;-74
2023/04/19 04:41:52;;;;;;;9.63;4.13;;;;;;;;;;4978665;28;20160;-74
2023/04/19 04:44:22;;;;;;;11.95;3.90;;;;;;;;;;4979350;28;20060;-74
2023/04/19 04:46:57;;;;;;;9.52;4.00;;;;;;;;;;4961737;28;20048;-74
2023/04/19 04:49:25;;;;;;;7.00;3.20;;;;;;;;;;4988583;28;20068;-73
2023/04/19 04:52:02;;;;;;;8.70;3.78;;;;;;;;;;4983624;28;20045;-74
2023/04/19 04:54:31;;;;;;;10.77;4.35;;;;;;;;;;4973235;28;20077;-74
2023/04/19 04:56:59;;;;;;;9.82;4.10;;;;;;;;;;4985489;28;20145;-74
2023/04/19 04:59:29;;;;;;;8.60;4.13;;;;;;;;;;4998677;28;20131;-75
2023/04/19 05:01:57;;;;;;;8.30;4.20;;;;;;;;;;4994193;28;20312;-75
2023/04/19 05:04:26;;;;;;;9.85;3.75;;;;;;;;;;4988390;28;20065;-75
2023/04/19 05:06:55;;;;;;;9.20;3.75;;;;;;;;;;5000450;28;20049;-75
2023/04/19 05:09:22;;;;;;;10.68;4.18;;;;;;;;;;4995073;28;20076;-74
2023/04/19 05:11:49;;;;;;;8.35;3.67;;;;;;;;;;4995568;28;20064;-75
2023/04/19 05:14:18;;;;;;;8.85;4.07;;;;;;;;;;4975595;28;20053;-74
2023/04/19 05:16:52;;;;;;;8.40;3.47;;;;;;;;;;4982512;28;20128;-75
2023/04/19 05:19:21;;;;;;;10.80;3.50;;;;;;;;;;4979901;28;20263;-76
2023/04/19 05:21:56;;;;;;;8.23;3.70;;;;;;;;;;4989822;28;20054;-75
2023/04/19 05:24:27;;;;;;;8.40;3.88;;;;;;;;;;4976200;28;20062;-75
2023/04/19 05:26:56;;;;;;;11.60;4.15;;;;;;;;;;4989036;28;20060;-75
2023/04/19 05:29:26;;;;;;;7.15;3.25;;;;;;;;;;4992949;28;20054;-74
2023/04/19 05:31:57;;;;;;;10.60;3.63;;;;;;;;;;5000484;28;20050;-73
2023/04/19 05:34:26;;;;;;;9.23;3.60;;;;;;;;;;4974532;28;20053;-74
2023/04/19 05:37:02;;;;;;;9.45;3.53;;;;;;;;;;4994890;28;20078;-75
2023/04/19 05:39:47;;;;;;;7.35;3.70;;;;;;;;;;4996883;28;20065;-74
2023/04/19 05:42:17;;;;;;;9.45;3.58;;;;;;;;;;4981775;28;20050;-74
2023/04/19 05:44:46;;;;;;;7.60;3.38;;;;;;;;;;4953503;28;20070;-74
2023/04/19 05:47:16;;;;;;;8.88;4.00;;;;;;;;;;4987081;28;20053;-75
2023/04/19 05:49:45;;;;;;;9.00;3.78;;;;;;;;;;4987382;28;20061;-75
2023/04/19 05:52:15;;;;;;;8.32;3.90;;;;;;;;;;4980139;28;20085;-75
2023/04/19 05:54:47;;;;;;;7.38;3.22;;;;;;;;;;4982465;28;20379;-71
2023/04/19 05:57:15;;;;;;;9.70;3.45;;;;;;;;;;5014162;28;20056;-75
2023/04/19 05:59:42;;;;;;;9.07;3.75;;;;;;;;;;4973153;28;20050;-74
2023/04/19 06:02:12;;;;;;;7.22;3.28;;;;;;;;;;4967799;28;20053;-75
2023/04/19 06:04:40;;;;;;;7.57;3.53;;;;;;;;;;4982682;28;20053;-74
2023/04/19 06:07:07;;;;;;;;;;;;;;;;;;5002344;28;20057;-75
2023/04/19 06:09:35;;;;;;;7.25;3.22;;;;;;;;;;4985219;28;19925;-74
2023/04/19 06:12:04;;;;;;;9.35;3.30;;;;;;;;;;4988419;28;20124;-74
2023/04/19 06:14:31;;;;;;;8.48;3.72;;;;;;;;;;4942158;28;20092;-75
2023/04/19 06:17:16;;;;;;;8.02;3.13;;;;;;;;;;4991451;28;20062;-75
2023/04/19 06:19:44;;;;;;;7.03;3.03;;;;;;;;;;4994836;28;20049;-74
2023/04/19 06:22:13;;;;;;;7.88;3.50;;;;;;;;;;4984853;28;20057;-74
2023/04/19 06:24:42;;;;;;;8.05;3.88;;;;;;;;;;4961278;28;20252;-75
2023/04/19 06:27:08;;;;;;;;;;;;;;;;;;4992449;28;20074;-75
2023/04/19 06:29:39;;;;;;;5.80;3.15;;;;;;;;;;4956224;28;19969;-74
2023/04/19 06:32:08;;;;;;;8.88;3.47;;;;;;;;;;4994571;28;20054;-74
2023/04/19 06:34:34;;;;;;;;;;;;;;;;;;4976967;28;20148;-74
2023/04/19 06:37:06;;;;;;;8.27;3.42;;;;;;;;;;4976427;28;19953;-75
2023/04/19 06:39:42;;;;;;;7.55;3.50;;;;;;;;;;4986199;28;20062;-75
2023/04/19 06:42:18;;;;;;;9.18;3.75;;;;;;;;;;5004963;28;20077;-73
2023/04/19 06:44:48;;;;;;;6.88;3.05;;;;;;;;;;4963270;28;20062;-74
2023/04/19 06:47:21;;;;;;;8.48;3.67;;;;;;;;;;4977958;28;20045;-75
2023/04/19 06:49:47;;;;;;;9.15;4.10;;;;;;;;;;5025923;28;20143;-75
2023/04/19 06:52:15;;;;;;;7.25;3.10;;;;;;;;;;4977709;28;20049;-74
2023/04/19 06:54:42;;;;;;;7.13;3.00;;;;;;;;;;4960285;28;20050;-75
2023/04/19 06:57:11;;;;;;;8.38;3.85;;;;;;;;;;4995049;28;20049;-73
2023/04/19 06:59:40;;;;;;;5.40;2.63;;;;;;;;;;4971278;28;20115;-74
2023/04/19 07:02:15;;;;;;;10.07;3.83;;;;;;;;;;4980033;28;20083;-74
2023/04/19 07:04:43;;;;;;;6.60;3.47;;;;;;;;;;5001030;28;20053;-75
2023/04/19 07:07:11;;;;;;;6.40;2.90;;;;;;;;;;4985358;28;20045;-74
2023/04/19 07:09:40;;;;;;;7.20;3.10;;;;;;;;;;4996209;28;20057;-75
2023/04/19 07:12:08;;;;;;;8.25;3.20;;;;;;;;;;4978824;28;20050;-74
2023/04/19 07:14:36;;;;;;;6.55;3.00;;;;;;;;;;4988120;28;20046;-75
2023/04/19 07:17:06;;;;;;;7.00;3.05;;;;;;;;;;4993689;28;20065;-74
2023/04/19 07:19:34;;;;;;;9.57;3.30;;;;;;;;;;4978450;28;20061;-74
2023/04/19 07:22:01;;;;;;;6.05;2.80;;;;;;;;;;4992494;28;20049;-74
2023/04/19 07:24:30;;;;;;;7.63;3.08;;;;;;;;;;4970120;28;20049;-74
2023/04/19 07:26:57;;;;;;;6.47;2.65;;;;;;;;;;4980166;28;20140;-75
2023/04/19 07:29:27;;;;;;;6.50;2.67;;;;;;;;;;4998834;28;20127;-75
2023/04/19 07:31:55;;;;;;;9.57;2.92;;;;;;;;;;4971843;28;20053;-75
2023/04/19 07:34:33;;;;;;;7.32;2.75;;;;;;;;;;4979494;28;20057;-76
2023/04/19 07:37:00;;;;;;;6.30;2.72;;;;;;;;;;4986182;28;20081;-75
2023/04/19 07:39:27;;;;;;;5.13;2.60;;;;;;;;;;4995886;28;20046;-75
2023/04/19 07:41:54;;;;;;;5.90;2.53;;;;;;;;;;4996971;28;20057;-74
2023/04/19 07:44:23;;;;;;;7.07;3.00;;;;;;;;;;4985558;28;20142;-74
2023/04/19 07:46:50;;;;;;;6.30;2.85;;;;;;;;;;4966504;28;20068;-74
2023/04/19 07:49:18;;;;;;;6.57;2.90;;;;;;;;;;4987930;28;20155;-75
2023/04/19 07:51:56;;;;;;;8.55;2.90;;;;;;;;;;4980602;28;20045;-74
2023/04/19 07:54:24;;;;;;;8.48;3.22;;;;;;;;;;4971654;28;20057;-74
2023/04/19 07:56:53;;;;;;;6.57;2.60;;;;;;;;;;4970025;28;20321;-74
2023/04/19 07:59:20;;;;;;;6.70;2.60;;;;;;;;;;4993422;28;20072;-74
2023/04/19 08:01:49;;;;;;;7.45;2.55;;;;;;;;;;4963778;28;20057;-75
2023/04/19 08:04:18;;;;;;;5.13;2.47;;;;;;;;;;4989201;28;20067;-74
2023/04/19 08:06:48;;;;;;;8.98;3.00;;;;;;;;;;4968507;28;20060;-74
2023/04/19 08:09:18;;;;;;;7.38;2.55;;;;;;;;;;4992462;28;20057;-74
2023/04/19 08:11:53;;;;;;;5.85;2.58;;;;;;;;;;4986261;28;20108;-75
2023/04/19 08:14:30;;;;;;;6.75;2.55;;;;;;;;;;4987128;28;20056;-75
2023/04/19 08:17:03;;;;;;;6.82;2.42;;;;;;;;;;5002098;28;20057;-76
2023/04/19 08:19:36;;;;;;;8.70;2.67;;;;;;;;;;5000602;28;20080;-74
2023/04/19 08:22:03;;;;;;;9.07;2.65;;;;;;;;;;4999984;28;20141;-74
2023/04/19 08:24:32;;;;;;;5.93;2.45;;;;;;;;;;4989363;28;20045;-75
2023/04/19 08:26:58;;;;;;;;;;;;;;;;;;4973049;28;20050;-75
2023/04/19 08:29:25;;;;;;;4.70;2.03;;;;;;;;;;4987267;28;20056;-75
2023/04/19 08:31:52;;;;;;;3.78;1.90;;;;;;;;;;4972766;28;20140;-74
2023/04/19 08:34:22;;;;;;;5.47;2.10;;;;;;;;;;4997319;28;20057;-75
2023/04/19 08:36:49;;;;;;;4.38;2.08;;;;;;;;;;4964929;28;20202;-75
2023/04/19 08:39:23;;;;;;;4.75;1.77;;;;;;;;;;5000391;28;20061;-74
2023/04/19 08:41:52;;;;;;;7.20;2.13;;;;;;;;;;5002778;28;20072;-74
2023/04/19 08:44:22;;;;;;;4.88;2.08;;;;;;;;;;4965556;28;20069;-75
2023/04/19 08:46:50;;;;;;;5.10;2.00;;;;;;;;;;4970811;28;20088;-75
2023/04/19 08:49:20;;;;;;;4.80;1.98;;;;;;;;;;4996524;28;20063;-74
2023/04/19 08:51:51;;;;;;;4.35;1.90;;;;;;;;;;4977049;28;20053;-74
2023/04/19 08:54:25;;;;;;;5.65;1.90;;;;;;;;;;4997613;28;20078;-75
2023/04/19 08:57:00;;;;;;;3.85;1.77;;;;;;;;;;4942625;28;20145;-75
2023/04/19 08:59:29;;;;;;;3.90;1.90;;;;;;;;;;4974001;28;20053;-74
2023/04/19 09:01:58;;;;;;;;;;;;;;;;;;4980135;28;20049;-74
2023/04/19 09:04:26;;;;;;;;;;;;;;;;;;4990349;28;19964;-75
2023/04/19 09:06:55;;;;;;;4.45;1.40;;;;;;;;;;4978126;28;20066;-75
2023/04/19 09:09:28;;;;;;;5.93;1.83;;;;;;;;;;4977797;28;20142;-75
2023/04/19 09:11:59;;;;;;;3.60;1.55;;;;;;;;;;4973345;28;20065;-75
2023/04/19 09:14:31;;;;;;;4.05;1.50;;;;;;;;;;4983535;28;20104;-75
2023/04/19 09:17:11;;;;;;;5.63;1.70;;;;;;;;;;4966654;28;20133;-75
2023/04/19 09:19:45;;;;;;;4.70;1.60;;;;;;;;;;4978158;28;20058;-75
2023/04/19 09:22:16;;;;;;;3.35;1.42;;;;;;;;;;4970907;28;20152;-75
2023/04/19 09:24:45;;;;;;;2.80;1.38;;;;;;;;;;4944735;28;20156;-75
2023/04/19 09:27:27;;;;;;;4.22;1.33;;;;;;;;;;4990004;28;20067;-75
2023/04/19 09:29:54;;;;;;;3.17;1.75;;;;;;;;;;4972662;28;20049;-74
2023/04/19 09:32:24;;;;;;;2.45;1.20;;;;;;;;;;4989080;28;20054;-75
2023/04/19 09:34:56;;;;;;;2.88;1.05;;;;;;;;;;4988839;28;20053;-74
2023/04/19 09:37:25;;;;;;;3.58;1.17;;;;;;;;;;4995111;28;20081;-75
2023/04/19 09:39:55;;;;;;;1.98;0.98;;;;;;;;;;4992774;28;20045;-75
2023/04/19 09:42:26;;;;;;;4.20;1.30;;;;;;;;;;4988208;28;20052;-75
2023/04/19 09:44:57;;;;;;;2.65;1.00;;;;;;;;;;4969900;28;20137;-75
2023/04/19 09:47:28;;;;;;;3.47;1.33;;;;;;;;;;4966934;28;20053;-75
2023/04/19 09:50:15;;;;;;;1.25;0.90;;;;;;;;;;5002184;28;20084;-76
2023/04/19 09:52:42;;;;;;;2.33;1.20;;;;;;;;;;4982330;28;20049;-75
2023/04/19 09:55:11;;;;;;;2.22;1.10;;;;;;;;;;4995833;28;20068;-74
2023/04/19 09:57:42;;;;;;;2.55;1.17;;;;;;;;;;4951861;28;20054;-75
2023/04/19 10:00:12;;;;;;;2.20;1.20;;;;;;;;;;4990939;28;20132;-74
2023/04/19 10:02:42;;;;;;;2.63;1.17;;;;;;;;;;4982477;28;20053;-75
2023/04/19 10:05:11;;;;;;;2.35;1.10;;;;;;;;;;4969713;28;20057;-75
2023/04/19 10:07:44;;;;;;;4.00;1.35;;;;;;;;;;4991111;28;20053;-75
2023/04/19 10:10:18;;;;;;;2.80;1.17;;;;;;;;;;4994995;28;20060;-74
2023/04/19 10:12:54;;;;;;;2.73;1.20;;;;;;;;;;4990855;28;20136;-74
2023/04/19 10:15:21;;;;;;;3.30;1.20;;;;;;;;;;4991374;28;20304;-74
2023/04/19 10:17:57;;;;;;;2.33;1.20;;;;;;;;;;4981548;28;20049;-75
2023/04/19 10:20:29;;;;;;;3.25;1.30;;;;;;;;;;4982892;28;20054;-74
2023/04/19 10:23:05;;;;;;;2.67;1.10;;;;;;;;;;4989601;28;20045;-75
2023/04/19 10:25:39;;;;;;;2.75;1.35;;;;;;;;;;4967797;28;20049;-75
2023/04/19 10:28:10;;;;;;;2.28;1.20;;;;;;;;;;4991250;28;20063;-75
2023/04/19 10:30:55;;;;;;;2.17;1.20;;;;;;;;;;4997284;28;20056;-75
2023/04/19 10:36:14;;;;;;;3.88;1.10;;;;;;;;;;4963393;28;20051;-75
2023/04/19 10:38:47;;;;;;;2.63;1.35;;;;;;;;;;4991079;28;20137;-74
2023/04/19 10:41:14;;;;;;;3.35;1.00;;;;;;;;;;4994619;28;20061;-74
2023/04/19 10:43:44;;;;;;;1.95;1.20;;;;;;;;;;4998040;28;20125;-75
2023/04/19 10:46:14;;;;;;;2.92;1.10;;;;;;;;;;4988747;28;20053;-75
2023/04/19 10:48:52;;;;;;;3.25;1.30;;;;;;;;;;4981928;28;20049;-75
2023/04/19 10:51:35;;;;;;;3.60;1.20;;;;;;;;;;4992903;28;20123;-75
2023/04/19 10:54:02;;;;;;;2.65;1.40;;;;;;;;;;4997055;28;20048;-74
2023/04/19 10:56:47;;;;;;;4.40;1.40;;;;;;;;;;4999657;28;20052;-74
2023/04/19 10:59:24;;;;;;;2.85;1.50;;;;;;;;;;4998107;28;20071;-74
2023/04/19 11:01:58;;;;;;;3.08;1.30;;;;;;;;;;5011505;28;20594;-75
2023/04/19 11:04:48;;;;;;;2.97;1.33;;;;;;;;;;4980300;28;20057;-75
2023/04/19 11:07:17;;;;;;;2.80;1.30;;;;;;;;;;5002651;28;20060;-75
2023/04/19 11:09:48;;;;;;;1.95;1.13;;;;;;;;;;5003182;28;20060;-74
2023/04/19 11:12:22;;;;;;;1.83;1.10;;;;;;;;;;5006827;28;20260;-74
2023/04/19 11:14:58;;;;;;;3.90;1.48;;;;;;;;;;4988090;28;20050;-75
2023/04/19 11:17:26;;;;;;;3.42;1.40;;;;;;;;;;4990003;28;20068;-74
2023/04/19 11:19:54;;;;;;;2.28;1.30;;;;;;;;;;5006021;28;20053;-75
2023/04/19 11:22:25;;;;;;;4.60;1.40;;;;;;;;;;4999358;28;20057;-75
2023/04/19 11:24:53;;;;;;;3.30;1.27;;;;;;;;;;5000929;28;20054;-75
2023/04/19 11:27:28;;;;;;;4.50;1.55;;;;;;;;;;4974112;28;20263;-74
2023/04/19 11:30:06;;;;;;;3.08;1.48;;;;;;;;;;5021245;28;20052;-73
2023/04/19 11:32:35;;;;;;;2.50;1.27;;;;;;;;;;4991720;28;20049;-74
2023/04/19 11:35:03;;;;;;;;;;;;;;;;;;5004750;28;20049;-74
2023/04/19 11:37:38;;;;;;;3.72;1.38;;;;;;;;;;5005611;28;19925;-74
2023/04/19 11:40:14;;;;;;;2.75;1.40;;;;;;;;;;5008431;28;20146;-74
2023/04/19 11:42:46;;;;;;;4.40;1.50;;;;;;;;;;4988484;28;20071;-74
2023/04/19 11:45:24;;;;;;;3.08;1.60;;;;;;;;;;5002529;28;20056;-74
2023/04/19 11:47:56;;;;;;;3.20;1.50;;;;;;;;;;5005118;28;20147;-74
2023/04/19 11:53:14;;;;;;;2.88;1.40;;;;;;;;;;4992021;28;20045;-74
2023/04/19 11:55:46;;;;;;;4.57;1.50;;;;;;;;;;4991810;28;20061;-74
2023/04/19 11:58:40;;;;;;;5.28;1.58;;;;;;;;;;5002618;28;20051;-74
2023/04/19 12:01:11;;;;;;;3.38;1.70;;;;;;;;;;4983503;28;20069;-74
2023/04/19 12:03:41;;;;;;;2.28;1.35;;;;;;;;;;5013518;28;20088;-74
2023/04/19 12:06:24;;;;;;;5.50;1.52;;;;;;;;;;4983183;28;20057;-74
2023/04/19 12:08:52;;;;;;;2.05;1.33;;;;;;;;;;5010453;28;20068;-74
2023/04/19 12:11:20;;;;;;;3.45;1.67;;;;;;;;;;5005441;28;20320;-74
2023/04/19 12:13:47;;;;;;;3.35;1.70;;;;;;;;;;4997682;28;20049;-74
2023/04/19 12:16:27;;;;;;;3.25;1.58;;;;;;;;;;4989654;28;20057;-74
2023/04/19 12:18:59;;;;;;;3.38;1.92;;;;;;;;;;5010911;28;20053;-74
2023/04/19 12:21:26;;;;;;;2.50;1.50;;;;;;;;;;5010820;28;20084;-74
2023/04/19 12:23:54;;;;;;;4.13;1.60;;;;;;;;;;5003746;28;20045;-74
2023/04/19 12:26:27;;;;;;;2.28;1.50;;;;;;;;;;4986332;28;20362;-74
2023/04/19 12:28:54;;;;;;;3.90;1.45;;;;;;;;;;5003666;28;20053;-73
2023/04/19 12:31:24;;;;;;;2.95;1.52;;;;;;;;;;5012590;28;20085;-74
2023/04/19 12:33:56;;;;;;;3.25;1.58;;;;;;;;;;5001029;28;20071;-75
2023/04/19 12:36:24;;;;;;;3.35;1.50;;;;;;;;;;4968208;28;20053;-74
2023/04/19 12:38:53;;;;;;;5.22;1.50;;;;;;;;;;4998375;28;20054;-74
2023/04/19 12:41:20;;;;;;;3.55;1.80;;;;;;;;;;5002356;28;20083;-74
2023/04/19 12:43:49;;;;;;;3.47;1.70;;;;;;;;;;4998183;28;20053;-74
2023/04/19 12:46:17;;;;;;;4.80;1.67;;;;;;;;;;4969201;28;20061;-74
2023/04/19 12:48:45;;;;;;;3.20;1.52;;;;;;;;;;4997305;28;20141;-74
2023/04/19 12:51:17;;;;;;;3.50;1.70;;;;;;;;;;5005429;28;20049;-74
2023/04/19 12:53:47;;;;;;;3.58;1.70;;;;;;;;;;5018209;28;20077;-74
2023/04/19 12:56:17;;;;;;;2.80;1.40;;;;;;;;;;4958110;28;20064;-74
2023/04/19 12:58:46;;;;;;;4.90;2.25;;;;;;;;;;4997937;28;21109;-73
2023/04/19 13:01:13;;;;;;;6.20;1.80;;;;;;;;;;5013247;28;20045;-74
2023/04/19 13:03:40;;;;;;;4.90;1.63;;;;;;;;;;5023990;28;20060;-74
2023/04/19 13:06:10;;;;;;;4.32;1.80;;;;;;;;;;5005196;28;20052;-74
2023/04/19 13:08:37;;;;;;;4.80;1.73;;;;;;;;;;5013719;28;20065;-74
2023/04/19 13:11:13;;;;;;;5.13;2.10;;;;;;;;;;5016543;28;20057;-74
2023/04/19 13:13:40;;;;;;;4.18;1.73;;;;;;;;;;5020219;28;20157;-74
2023/04/19 13:16:11;;;;;;;4.25;1.73;;;;;;;;;;4999858;28;20057;-74
2023/04/19 13:18:40;;;;;;;4.72;1.80;;;;;;;;;;5014373;28;20053;-74
2023/04/19 13:21:13;;;;;;;2.83;1.52;;;;;;;;;;5003583;28;20053;-75
2023/04/19 13:23:45;;;;;;;3.13;1.73;;;;;;;;;;5009943;28;20095;-74
2023/04/19 13:26:13;;;;;;;4.88;1.83;;;;;;;;;;4996208;28;20049;-75
2023/04/19 13:28:46;;;;;;;4.10;1.90;;;;;;;;;;4976098;28;20160;-74
2023/04/19 13:31:13;;;;;;;6.00;2.05;;;;;;;;;;4988935;28;20140;-74
2023/04/19 13:33:42;;;;;;;4.72;1.90;;;;;;;;;;5011453;28;20072;-74
2023/04/19 13:36:11;;;;;;;5.07;2.25;;;;;;;;;;4979272;28;20061;-74
2023/04/19 13:38:42;;;;;;;5.43;2.13;;;;;;;;;;4991990;28;20053;-73
2023/04/19 13:41:15;;;;;;;3.60;1.60;;;;;;;;;;4998677;28;20111;-73
2023/04/19 13:43:47;;;;;;;6.05;1.58;;;;;;;;;;5006273;28;20084;-75
2023/04/19 13:46:15;;;;;;;4.18;2.05;;;;;;;;;;4983526;28;20090;-74
2023/04/19 13:48:42;;;;;;;4.65;2.05;;;;;;;;;;4979844;28;20053;-74
2023/04/19 13:51:09;;;;;;;5.13;1.75;;;;;;;;;;5015816;28;20065;-74
2023/04/19 13:53:39;;;;;;;4.13;1.70;;;;;;;;;;4999159;28;20127;-73
2023/04/19 13:59:05;;;;;;;;;;;;;;;;;;4982246;28;20057;-74
2023/04/19 14:01:32;;;;;;;3.23;1.50;;;;;;;;;;4978482;28;19936;-74
2023/04/19 14:03:59;;;;;;;4.10;1.80;;;;;;;;;;4977755;28;20053;-74
2023/04/19 14:06:28;;;;;;;5.78;1.98;;;;;;;;;;4988829;28;20067;-73
2023/04/19 14:08:59;;;;;;;3.53;1.85;;;;;;;;;;4995126;28;20068;-73
2023/04/19 14:11:26;;;;;;;3.22;1.60;;;;;;;;;;4998692;28;20072;-72
2023/04/19 14:13:58;;;;;;;4.80;1.63;;;;;;;;;;5014717;28;20057;-72
2023/04/19 14:16:28;;;;;;;7.03;1.63;;;;;;;;;;4989064;28;20200;-73
2023/04/19 14:19:05;;;;;;;5.30;1.50;;;;;;;;;;4976419;28;20132;-73
2023/04/19 14:21:32;;;;;;;3.22;1.50;;;;;;;;;;4999241;28;20053;-72
2023/04/19 14:24:02;;;;;;;3.78;1.60;;;;;;;;;;4979133;28;20112;-72
2023/04/19 14:26:29;;;;;;;6.25;1.48;;;;;;;;;;4985506;28;20085;-73
2023/04/19 14:28:58;;;;;;;3.67;1.50;;;;;;;;;;4991291;28;20204;-72
2023/04/19 14:31:26;;;;;;;4.22;1.58;;;;;;;;;;4981716;28;20185;-73
2023/04/19 14:33:55;;;;;;;3.05;1.50;;;;;;;;;;4981411;28;20168;-72
2023/04/19 14:36:50;;;;;;;3.13;1.60;;;;;;;;;;4938662;28;20054;-73
2023/04/19 14:39:18;;;;;;;4.57;1.60;;;;;;;;;;4990269;28;20080;-73
2023/04/19 14:41:45;;;;;;;3.53;1.60;;;;;;;;;;4997098;28;20144;-72
2023/04/19 14:44:12;;;;;;;2.45;1.50;;;;;;;;;;4987928;28;20053;-73
2023/04/19 14:46:40;;;;;;;6.05;1.50;;;;;;;;;;4983811;28;20075;-73
2023/04/19 14:49:07;;;;;;;3.65;1.70;;;;;;;;;;4994056;28;20056;-72
2023/04/19 14:51:33;;;;;;;3.08;1.58;;;;;;;;;;4990956;28;20076;-72
2023/04/19 14:54:00;;;;;;;6.60;1.65;;;;;;;;;;4999725;28;20060;-73
2023/04/19 14:56:30;;;;;;;2.75;1.50;;;;;;;;;;4998563;28;20060;-73
2023/04/19 14:58:57;;;;;;;2.35;1.50;;;;;;;;;;5012933;28;20049;-72
2023/04/19 15:01:23;;;;;;;3.20;1.60;;;;;;;;;;5019991;28;20048;-72
2023/04/19 15:03:50;;;;;;;4.05;1.58;;;;;;;;;;5035472;28;20099;-71
2023/04/19 15:06:17;;;;;;;4.65;1.63;;;;;;;;;;5002972;28;20071;-72